Time;durP1;ratioP1;P1;durP2;ratioP2;P2;SDS_P1;SDS_P2;PMS_P1;PMS_P2;Temp;Humidity;BMP_temperature;BMP_pressure;BME280_temperature;BME280_humidity;BME280_pressure;Samples;Min_cycle;Max_cycle;Signal;HPM_P1;HPM_P2
2024/01/11 00:01:14;;;;;;;47.20;26.35;;;;;;;5.20;61.01;102327.13;4922025;29;20509;-83
2024/01/11 00:03:44;;;;;;;52.00;28.42;;;;;;;5.17;60.86;102317.59;4917129;28;20516;-82
2024/01/11 00:06:11;;;;;;;50.63;27.35;;;;;;;4.71;61.12;102253.56;4901422;29;20114;-80
2024/01/11 00:08:38;;;;;;;51.17;26.75;;;;;;;4.99;61.59;102300.69;4892413;29;20133;-81
2024/01/11 00:11:05;;;;;;;48.35;28.23;;;;;;;4.99;61.02;102299.84;4905007;28;20130;-81
2024/01/11 00:13:37;;;;;;;46.10;26.48;;;;;;;5.06;60.74;102306.59;4917970;28;20093;-82
2024/01/11 00:16:09;;;;;;;;;;;;;;;4.75;60.37;102257.75;4928913;29;20058;-82
2024/01/11 00:18:37;;;;;;;49.22;25.63;;;;;;;5.00;60.23;102293.66;4899947;29;20271;-82
2024/01/11 00:21:06;;;;;;;52.58;26.05;;;;;;;5.10;60.40;102303.78;4929643;28;20161;-81
2024/01/11 00:23:32;;;;;;;44.88;24.92;;;;;;;5.18;59.95;102303.50;4928095;28;20062;-80
2024/01/11 00:25:59;;;;;;;44.90;26.40;;;;;;;5.05;60.15;102300.47;4912905;28;20432;-83
2024/01/11 00:28:28;;;;;;;53.08;26.40;;;;;;;5.11;59.99;102299.38;4912525;29;20195;-83
2024/01/11 00:30:55;;;;;;;51.95;27.17;;;;;;;5.04;60.69;102296.13;4918843;28;20055;-81
2024/01/11 00:33:22;;;;;;;46.08;26.27;;;;;;;5.04;60.39;102301.38;4884521;28;20049;-80
2024/01/11 00:35:49;;;;;;;51.70;27.05;;;;;;;5.00;60.16;102301.56;4899463;28;20292;-80
2024/01/11 00:38:16;;;;;;;47.05;25.67;;;;;;;4.53;59.89;102230.56;4902036;28;20047;-80
2024/01/11 00:40:49;;;;;;;50.22;26.10;;;;;;;4.74;59.58;102242.91;4901081;28;20066;-81
2024/01/11 00:43:16;;;;;;;57.08;27.60;;;;;;;5.11;59.81;102307.28;4901897;28;20059;-80
2024/01/11 00:45:45;;;;;;;54.60;26.88;;;;;;;5.10;59.36;102297.66;4906155;29;20055;-80
2024/01/11 00:48:12;;;;;;;46.85;25.88;;;;;;;4.98;59.62;102292.88;4917213;28;20051;-80
2024/01/11 00:50:47;;;;;;;45.75;26.27;;;;;;;5.11;59.31;102307.28;4916093;28;20326;-83
2024/01/11 00:53:14;;;;;;;44.33;25.92;;;;;;;5.00;59.84;102301.56;4919229;28;20043;-80
2024/01/11 00:55:44;;;;;;;44.67;24.65;;;;;;;4.95;59.67;102287.72;4909453;28;20415;-82
2024/01/11 00:58:11;;;;;;;53.03;25.85;;;;;;;4.80;59.47;102268.97;4918554;28;20051;-80
2024/01/11 01:00:38;;;;;;;47.42;25.42;;;;;;;4.90;60.26;102290.53;4911548;28;20321;-80
2024/01/11 01:03:05;;;;;;;45.42;25.60;;;;;;;4.88;59.78;102298.50;4911450;28;20061;-81
2024/01/11 01:05:35;;;;;;;49.78;25.42;;;;;;;5.00;59.82;102301.56;4907106;28;20062;-82
2024/01/11 01:08:06;;;;;;;44.28;25.27;;;;;;;5.02;59.32;102291.81;4910129;28;20449;-80
2024/01/11 01:10:33;;;;;;;43.50;24.75;;;;;;;4.88;59.01;102266.91;4911662;28;20514;-81
2024/01/11 01:12:59;;;;;;;53.30;27.13;;;;;;;5.06;58.62;102301.34;4937121;28;20244;-81
2024/01/11 01:15:26;;;;;;;51.38;25.80;;;;;;;4.82;59.19;102267.13;4919569;28;20074;-79
2024/01/11 01:17:53;;;;;;;50.28;24.33;;;;;;;4.93;59.66;102304.44;4922143;29;20047;-80
2024/01/11 01:20:20;;;;;;;50.85;26.45;;;;;;;4.34;60.18;102197.03;4915388;28;20087;-79
2024/01/11 01:22:47;;;;;;;50.25;26.42;;;;;;;4.87;59.97;102270.44;4933210;28;20070;-78
2024/01/11 01:25:15;;;;;;;49.53;25.35;;;;;;;4.99;60.05;102284.06;4911789;28;20048;-82
2024/01/11 01:27:42;;;;;;;47.08;25.98;;;;;;;4.96;60.10;102286.81;4920032;28;20082;-81
2024/01/11 01:30:09;;;;;;;50.55;26.10;;;;;;;5.01;59.59;102290.97;4921729;28;20081;-80
2024/01/11 01:32:36;;;;;;;52.05;27.15;;;;;;;4.72;59.97;102256.09;4911666;28;20110;-80
2024/01/11 01:35:08;;;;;;;49.42;28.30;;;;;;;4.96;59.74;102302.59;4928477;29;20102;-84
2024/01/11 01:37:35;;;;;;;52.70;27.75;;;;;;;4.93;60.23;102304.44;4910502;29;20083;-82
2024/01/11 01:40:03;;;;;;;48.88;27.15;;;;;;;4.58;60.40;102236.50;4918390;29;20459;-82
2024/01/11 01:42:29;;;;;;;46.63;26.33;;;;;;;4.90;60.13;102294.03;4913096;28;20058;-80
2024/01/11 01:44:56;;;;;;;53.83;27.35;;;;;;;4.97;60.30;102297.25;4904691;28;20502;-82
2024/01/11 01:47:28;;;;;;;51.75;27.88;;;;;;;4.97;60.22;102301.69;4914266;29;20114;-83
2024/01/11 01:50:00;;;;;;;55.25;25.70;;;;;;;4.93;60.03;102291.28;4920516;29;20209;-80
2024/01/11 01:52:28;;;;;;;51.08;28.50;;;;;;;4.79;60.16;102277.78;4934695;28;20050;-80
2024/01/11 01:54:57;;;;;;;47.85;27.98;;;;;;;4.97;60.32;102288.53;4921296;29;20054;-79
2024/01/11 01:57:25;;;;;;;53.63;27.27;;;;;;;4.71;60.28;102253.56;4919520;28;20053;-80
2024/01/11 01:59:52;;;;;;;46.75;25.70;;;;;;;4.92;60.45;102305.34;4911635;28;20043;-82
2024/01/11 02:02:20;;;;;;;49.72;26.88;;;;;;;4.93;59.75;102291.28;4923456;28;20058;-81
2024/01/11 02:04:47;;;;;;;51.40;26.80;;;;;;;5.00;59.99;102301.56;4927625;28;20105;-81
2024/01/11 02:07:14;;;;;;;45.20;25.38;;;;;;;4.97;59.56;102286.72;4919756;28;20075;-81
2024/01/11 02:09:42;;;;;;;47.53;25.08;;;;;;;4.55;59.27;102199.78;4918861;29;20061;-81
2024/01/11 02:12:14;;;;;;;47.40;26.52;;;;;;;4.63;59.56;102234.53;4911500;28;20396;-80
2024/01/11 02:14:41;;;;;;;49.47;25.85;;;;;;;4.62;59.96;102222.31;4921594;28;20154;-80
2024/01/11 02:17:08;;;;;;;46.92;26.08;;;;;;;5.00;59.80;102297.16;4922795;29;20427;-80
2024/01/11 02:19:36;;;;;;;48.83;25.92;;;;;;;4.81;59.79;102270.69;4918132;29;20693;-80
2024/01/11 02:22:11;;;;;;;50.17;27.05;;;;;;;4.91;60.39;102285.22;4921510;28;20106;-80
2024/01/11 02:24:38;;;;;;;52.17;27.23;;;;;;;4.94;60.02;102276.34;4918427;29;20055;-80
2024/01/11 02:27:05;;;;;;;51.55;26.42;;;;;;;4.97;60.57;102285.88;4912496;29;20154;-82
2024/01/11 02:29:32;;;;;;;55.75;27.67;;;;;;;4.90;60.66;102270.34;4917925;29;20067;-82
2024/01/11 02:32:01;;;;;;;59.75;27.95;;;;;;;4.96;60.01;102278.91;4918451;28;20308;-80
2024/01/11 02:34:31;;;;;;;47.30;27.35;;;;;;;4.93;60.45;102272.00;4914134;29;20055;-82
2024/01/11 02:37:01;;;;;;;60.85;27.65;;;;;;;4.97;60.88;102280.63;4917537;28;20469;-81
2024/01/11 02:39:28;;;;;;;57.22;28.02;;;;;;;4.91;60.70;102261.53;4890047;29;20533;-80
2024/01/11 02:41:58;;;;;;;52.45;28.60;;;;;;;5.00;60.70;102275.22;4911820;28;20051;-82
2024/01/11 02:44:25;;;;;;;53.67;30.23;;;;;;;4.83;60.91;102253.06;4916334;29;20517;-81
2024/01/11 02:46:51;;;;;;;54.72;29.42;;;;;;;5.01;61.61;102283.06;4910419;28;20059;-81
2024/01/11 02:49:23;;;;;;;52.88;30.40;;;;;;;4.98;61.34;102277.09;4917761;29;20380;-80
2024/01/11 02:51:50;;;;;;;58.50;31.42;;;;;;;4.97;62.04;102275.34;4925241;28;20133;-81
2024/01/11 02:54:17;;;;;;;55.45;31.08;;;;;;;4.78;62.28;102248.88;4922632;28;20368;-82
2024/01/11 02:56:53;;;;;;;58.00;30.20;;;;;;;4.91;62.35;102261.53;4919093;29;20051;-82
2024/01/11 02:59:34;;;;;;;62.60;33.03;;;;;;;4.96;62.07;102271.03;4892065;29;20106;-80
2024/01/11 03:02:04;;;;;;;55.97;30.88;;;;;;;4.91;62.76;102258.03;4910523;28;20139;-80
2024/01/11 03:04:30;;;;;;;58.65;33.83;;;;;;;4.79;62.68;102254.09;4932120;28;20053;-80
2024/01/11 03:06:57;;;;;;;58.45;32.20;;;;;;;4.60;63.38;102224.16;4913926;28;20043;-80
2024/01/11 03:09:25;;;;;;;65.03;33.75;;;;;;;4.75;63.39;102247.22;4907904;28;20082;-82
2024/01/11 03:11:52;;;;;;;65.32;33.13;;;;;;;4.47;62.92;102198.31;4931932;28;20195;-80
2024/01/11 03:14:18;;;;;;;63.33;35.30;;;;;;;4.83;62.63;102242.56;4906061;28;20113;-82
2024/01/11 03:16:50;;;;;;;62.47;33.13;;;;;;;4.84;63.09;102257.41;4909080;28;20186;-82
2024/01/11 03:19:17;;;;;;;67.35;34.13;;;;;;;4.74;63.34;102242.91;4916310;28;20063;-80
2024/01/11 03:21:48;;;;;;;68.30;35.35;;;;;;;4.65;63.38;102243.25;4925471;28;20046;-82
2024/01/11 03:24:20;;;;;;;64.00;34.22;;;;;;;4.57;63.43;102226.91;4914161;28;20721;-81
2024/01/11 03:26:57;;;;;;;65.07;34.08;;;;;;;4.39;64.03;102220.53;4907993;28;20502;-80
2024/01/11 03:29:35;;;;;;;63.33;33.50;;;;;;;4.59;64.19;102246.13;4885029;28;20051;-80
2024/01/11 03:32:02;;;;;;;68.65;35.25;;;;;;;4.56;63.55;102225.16;4915920;28;20114;-79
2024/01/11 03:34:32;;;;;;;59.13;33.25;;;;;;;4.54;63.62;102235.78;4908327;28;20347;-82
2024/01/11 03:36:58;;;;;;;65.60;34.28;;;;;;;4.52;63.96;102236.75;4927808;28;20043;-81
2024/01/11 03:39:25;;;;;;;59.67;32.40;;;;;;;4.53;64.21;102246.34;4914197;28;20051;-80
2024/01/11 03:41:52;;;;;;;56.03;32.67;;;;;;;4.52;63.81;102239.38;4933448;28;20046;-80
2024/01/11 03:44:19;;;;;;;58.00;31.35;;;;;;;3.69;63.70;102100.47;4924075;28;20082;-81
2024/01/11 03:46:46;;;;;;;64.50;33.72;;;;;;;4.40;63.96;102217.88;4901264;28;20073;-82
2024/01/11 03:49:14;;;;;;;60.35;34.40;;;;;;;4.35;63.86;102214.56;4918232;28;20528;-81
2024/01/11 03:51:42;;;;;;;60.33;34.05;;;;;;;3.62;64.21;102103.31;4927813;28;20286;-81
2024/01/11 03:54:13;;;;;;;56.38;30.90;;;;;;;4.42;64.25;102237.09;4899562;28;20831;-83
2024/01/11 03:56:40;;;;;;;54.42;33.95;;;;;;;4.47;64.04;102229.88;4902662;28;20146;-82
2024/01/11 03:59:07;;;;;;;62.08;34.00;;;;;;;4.18;64.00;102180.16;4900468;28;20074;-81
2024/01/11 04:01:39;;;;;;;62.75;34.70;;;;;;;4.41;64.42;102222.19;4909751;28;20039;-81
2024/01/11 04:04:06;;;;;;;58.72;32.47;;;;;;;4.55;64.17;102237.47;4908950;28;20055;-82
2024/01/11 04:06:35;;;;;;;59.40;32.88;;;;;;;4.31;64.04;102205.06;4910821;28;20137;-82
2024/01/11 04:09:02;;;;;;;66.10;33.67;;;;;;;4.49;63.80;102237.69;4921615;28;20471;-81
2024/01/11 04:11:29;;;;;;;65.20;33.05;;;;;;;4.29;63.50;102214.75;4914419;28;20062;-80
2024/01/11 04:13:58;;;;;;;59.95;32.83;;;;;;;4.29;63.74;102220.03;4909524;28;20059;-81
2024/01/11 04:16:25;;;;;;;55.45;32.28;;;;;;;4.19;64.34;102209.00;4914090;28;20194;-83
2024/01/11 04:18:52;;;;;;;59.75;33.35;;;;;;;4.41;64.53;102237.13;4915987;28;20054;-82
2024/01/11 04:21:30;;;;;;;63.63;32.15;;;;;;;4.22;63.80;102197.50;4925325;28;20480;-79
2024/01/11 04:24:10;;;;;;;62.65;35.10;;;;;;;4.24;64.72;102216.72;4900801;28;20109;-81
2024/01/11 04:26:59;;;;;;;60.63;32.97;;;;;;;4.22;65.11;102229.94;4877502;28;20050;-83
2024/01/11 04:29:40;;;;;;;58.92;32.22;;;;;;;4.11;65.92;102210.19;4883774;28;20058;-79
2024/01/11 04:32:07;;;;;;;54.67;32.03;;;;;;;4.25;65.30;102213.19;4901216;28;20054;-81
2024/01/11 04:34:34;;;;;;;63.97;32.38;;;;;;;3.86;65.08;102148.03;4906419;28;20053;-80
2024/01/11 04:37:01;;;;;;;54.72;32.00;;;;;;;3.96;65.59;102165.16;4911022;28;20374;-80
2024/01/11 04:39:38;;;;;;;59.90;33.00;;;;;;;4.21;65.28;102198.44;4882381;28;20359;-81
2024/01/11 04:42:28;;;;;;;55.00;32.40;;;;;;;4.21;65.11;102206.31;4880844;28;20344;-83
2024/01/11 04:45:00;;;;;;;56.42;32.45;;;;;;;4.23;65.81;102215.00;4881222;28;20244;-82
2024/01/11 04:47:32;;;;;;;64.20;35.20;;;;;;;3.81;66.48;102144.66;4913474;28;20058;-82
2024/01/11 04:49:59;;;;;;;;;;;;;;;4.20;66.49;102217.72;4931601;28;20394;-80
2024/01/11 04:52:25;;;;;;;63.75;33.55;;;;;;;4.13;66.76;102214.47;4912641;28;20355;-80
2024/01/11 04:54:52;;;;;;;63.67;34.17;;;;;;;3.95;66.43;102179.19;4922905;28;20514;-83
2024/01/11 04:57:19;;;;;;;58.63;31.52;;;;;;;4.15;66.61;102212.66;4913795;28;20367;-80
2024/01/11 04:59:46;;;;;;;50.53;29.02;;;;;;;4.10;66.07;102193.53;4949693;28;20086;-81
2024/01/11 05:02:13;;;;;;;51.17;29.35;;;;;;;3.53;66.28;102102.78;4946134;28;20438;-82
2024/01/11 05:04:39;;;;;;;58.63;31.60;;;;;;;4.15;65.05;102183.75;4933707;28;20043;-81
2024/01/11 05:07:06;;;;;;;60.42;32.30;;;;;;;4.29;65.14;102218.25;4899612;28;20880;-81
2024/01/11 05:09:45;;;;;;;54.90;32.53;;;;;;;4.06;65.20;102176.19;4933699;28;20144;-81
2024/01/11 05:12:18;;;;;;;56.88;32.40;;;;;;;3.97;65.93;102172.13;4940402;28;20096;-82
2024/01/11 05:14:45;;;;;;;53.72;31.60;;;;;;;4.21;65.74;102211.56;4902013;28;20129;-78
2024/01/11 05:17:13;;;;;;;62.40;33.03;;;;;;;4.18;66.14;102222.22;4904386;28;20446;-81
2024/01/11 05:19:41;;;;;;;52.60;32.25;;;;;;;4.09;65.96;102186.59;4899552;28;20790;-82
2024/01/11 05:22:08;;;;;;;56.08;31.67;;;;;;;4.06;66.43;102191.97;4908621;28;20139;-82
2024/01/11 05:24:35;;;;;;;59.83;30.95;;;;;;;4.18;66.33;102199.41;4913350;28;20049;-82
2024/01/11 05:27:02;;;;;;;55.15;31.38;;;;;;;3.99;65.84;102166.81;4918680;28;20141;-79
2024/01/11 05:29:35;;;;;;;63.50;31.48;;;;;;;4.15;65.80;102191.63;4931273;28;20289;-80
2024/01/11 05:32:09;;;;;;;58.33;32.15;;;;;;;4.32;65.29;102204.16;4921973;28;20537;-82
2024/01/11 05:34:37;;;;;;;57.72;32.30;;;;;;;4.00;65.54;102158.84;4915790;28;20113;-81
2024/01/11 05:37:07;;;;;;;61.70;33.35;;;;;;;4.09;65.78;102178.69;4913522;28;20053;-81
2024/01/11 05:39:39;;;;;;;58.38;31.67;;;;;;;4.02;66.12;102174.59;4934956;28;20047;-80
2024/01/11 05:42:06;;;;;;;59.55;33.15;;;;;;;4.07;65.80;102178.75;4940390;28;20137;-82
2024/01/11 05:44:37;;;;;;;59.70;33.00;;;;;;;4.16;65.54;102182.81;4907326;28;20062;-82
2024/01/11 05:47:04;;;;;;;60.47;32.85;;;;;;;4.26;65.85;102207.00;4916395;28;20110;-83
2024/01/11 05:49:31;;;;;;;59.35;32.63;;;;;;;4.28;66.58;102218.31;4923382;28;20093;-80
2024/01/11 05:51:57;;;;;;;62.42;33.58;;;;;;;4.22;66.36;102218.53;4908689;28;20080;-82
2024/01/11 05:54:26;;;;;;;65.97;33.95;;;;;;;4.28;66.18;102207.81;4932869;28;20121;-80
2024/01/11 05:56:57;;;;;;;60.60;33.05;;;;;;;4.36;65.82;102221.50;4906939;28;20775;-80
2024/01/11 05:59:24;;;;;;;62.72;32.83;;;;;;;4.17;65.63;102183.66;4917491;28;20458;-83
2024/01/11 06:01:52;;;;;;;60.10;34.50;;;;;;;4.40;65.67;102217.00;4928761;28;20507;-79
2024/01/11 06:04:26;;;;;;;61.50;32.70;;;;;;;4.32;65.28;102214.69;4905715;28;20410;-81
2024/01/11 06:06:59;;;;;;;56.72;31.23;;;;;;;4.17;65.42;102189.78;4862486;28;20212;-82
2024/01/11 06:09:26;;;;;;;63.42;34.28;;;;;;;4.24;66.29;102212.31;4864953;29;20487;-81
2024/01/11 06:11:53;;;;;;;66.57;32.97;;;;;;;4.19;65.65;102213.41;4902090;28;20062;-82
2024/01/11 06:14:22;;;;;;;57.33;32.30;;;;;;;4.31;65.55;102217.34;4922486;28;20050;-81
2024/01/11 06:16:53;;;;;;;63.72;32.83;;;;;;;4.38;65.17;102224.94;4920065;28;20047;-81
2024/01/11 06:19:24;;;;;;;59.35;31.75;;;;;;;4.24;65.54;102208.81;4909441;28;20050;-81
2024/01/11 06:21:57;;;;;;;57.17;31.42;;;;;;;4.33;65.13;102220.78;4919211;28;20047;-81
2024/01/11 06:24:24;;;;;;;63.13;32.47;;;;;;;4.33;64.56;102226.03;4917916;28;20074;-81
2024/01/11 06:26:51;;;;;;;63.72;32.67;;;;;;;4.08;64.89;102184.88;4900556;29;20214;-80
2024/01/11 06:29:25;;;;;;;56.95;32.05;;;;;;;4.27;64.94;102217.47;4893027;29;20055;-83
2024/01/11 06:31:52;;;;;;;61.60;33.50;;;;;;;4.28;65.26;102224.44;4898138;29;20522;-81
2024/01/11 06:34:18;;;;;;;59.03;31.83;;;;;;;4.32;65.48;102222.56;4909471;28;20568;-81
2024/01/11 06:36:45;;;;;;;58.92;32.53;;;;;;;4.22;65.46;102213.28;4918485;28;20407;-81
2024/01/11 06:39:12;;;;;;;56.60;31.45;;;;;;;4.13;65.63;102198.72;4929815;28;20089;-80
2024/01/11 06:41:43;;;;;;;62.67;33.47;;;;;;;4.10;65.56;102187.44;4925469;28;20055;-80
2024/01/11 06:44:12;;;;;;;63.70;33.80;;;;;;;4.32;65.39;102227.81;4920061;28;20070;-81
2024/01/11 06:46:41;;;;;;;65.30;32.45;;;;;;;4.10;65.24;102176.91;4925668;28;20050;-81
2024/01/11 06:49:08;;;;;;;60.55;32.85;;;;;;;4.22;65.69;102202.75;4939601;28;20061;-79
2024/01/11 06:51:36;;;;;;;61.65;33.58;;;;;;;4.27;65.40;102206.06;4929579;28;20125;-81
2024/01/11 06:54:03;;;;;;;54.78;31.38;;;;;;;4.27;65.18;102191.19;4930764;28;20047;-80
2024/01/11 06:56:30;;;;;;;54.85;33.15;;;;;;;4.34;65.31;102209.34;4941375;28;20318;-81
2024/01/11 06:58:59;;;;;;;60.05;31.75;;;;;;;3.82;64.72;102114.88;4926114;28;20109;-80
2024/01/11 07:01:26;;;;;;;58.30;31.67;;;;;;;4.53;64.06;102217.41;4932572;28;20082;-80
2024/01/11 07:04:02;;;;;;;58.28;31.48;;;;;;;4.23;63.33;102172.94;4946471;28;21108;-80
2024/01/11 07:06:29;;;;;;;58.85;30.70;;;;;;;4.41;63.97;102216.09;4934261;28;20046;-80
2024/01/11 07:08:59;;;;;;;61.80;31.38;;;;;;;4.32;64.26;102204.16;4932152;28;20064;-80
2024/01/11 07:11:29;;;;;;;56.20;31.48;;;;;;;4.19;64.07;102195.00;4938463;28;20054;-81
2024/01/11 07:13:58;;;;;;;60.45;31.15;;;;;;;4.20;64.82;102194.94;4937968;28;20046;-80
2024/01/11 07:16:25;;;;;;;50.65;30.70;;;;;;;4.00;64.33;102160.63;4936464;28;20486;-81
2024/01/11 07:18:52;;;;;;;56.92;31.83;;;;;;;4.21;64.54;102185.28;4941190;28;20502;-79
2024/01/11 07:21:29;;;;;;;55.97;32.08;;;;;;;4.34;64.38;102196.19;4941314;28;20039;-81
2024/01/11 07:24:00;;;;;;;59.70;32.47;;;;;;;4.41;64.36;102198.53;4935993;28;20047;-80
2024/01/11 07:26:27;;;;;;;53.95;30.08;;;;;;;4.32;64.50;102187.50;4934466;28;20050;-80
2024/01/11 07:28:57;;;;;;;56.83;31.33;;;;;;;4.31;65.08;102197.16;4932029;28;20061;-81
2024/01/11 07:31:24;;;;;;;61.10;32.72;;;;;;;4.41;65.10;102203.78;4929298;28;20707;-83
2024/01/11 07:33:57;;;;;;;55.15;29.17;;;;;;;4.41;63.93;102209.06;4936863;28;20494;-81
2024/01/11 07:36:32;;;;;;;63.50;30.98;;;;;;;4.28;64.29;102185.00;4935739;28;20046;-81
2024/01/11 07:39:02;;;;;;;58.30;31.67;;;;;;;4.29;63.80;102185.84;4943017;28;20494;-78
2024/01/11 07:41:29;;;;;;;67.43;32.83;;;;;;;4.56;63.60;102201.50;4944863;28;20150;-80
2024/01/11 07:44:01;;;;;;;63.45;31.15;;;;;;;4.58;62.89;102186.53;4935610;28;20050;-81
2024/01/11 07:46:28;;;;;;;62.75;32.05;;;;;;;4.58;62.81;102210.19;4930786;28;20050;-81
2024/01/11 07:49:07;;;;;;;64.45;32.15;;;;;;;4.59;62.71;102204.88;4940907;28;20121;-81
2024/01/11 07:51:34;;;;;;;64.18;30.65;;;;;;;4.53;63.13;102209.50;4946263;28;20047;-79
2024/01/11 07:54:02;;;;;;;65.13;34.00;;;;;;;4.53;62.95;102202.47;4940030;28;20062;-80
2024/01/11 07:56:31;;;;;;;64.13;33.10;;;;;;;4.52;63.00;102199.91;4925973;28;20043;-82
2024/01/11 07:58:58;;;;;;;63.28;34.30;;;;;;;4.60;63.06;102218.88;4940906;28;20050;-79
2024/01/11 08:01:25;;;;;;;59.45;32.53;;;;;;;4.69;62.27;102215.91;4936876;28;20062;-78
2024/01/11 08:03:52;;;;;;;66.85;35.05;;;;;;;4.61;61.59;102205.69;4952868;28;20169;-80
2024/01/11 08:06:22;;;;;;;68.40;34.30;;;;;;;4.67;61.33;102209.84;4967472;28;20057;-81
2024/01/11 08:08:54;;;;;;;64.32;33.60;;;;;;;4.65;61.34;102211.69;4941011;28;20039;-79
2024/01/11 08:11:21;;;;;;;60.97;35.65;;;;;;;4.63;61.84;102210.88;4936429;28;20553;-81
2024/01/11 08:13:47;;;;;;;57.65;33.05;;;;;;;4.68;61.54;102216.81;4955467;28;20046;-80
2024/01/11 08:16:18;;;;;;;61.90;33.30;;;;;;;4.63;60.99;102201.19;4956097;28;20046;-80
2024/01/11 08:18:45;;;;;;;58.28;33.08;;;;;;;4.55;61.10;102184.88;4937187;28;20284;-80
2024/01/11 08:21:13;;;;;;;59.33;32.47;;;;;;;4.75;61.10;102234.06;4923746;28;20109;-81
2024/01/11 08:23:44;;;;;;;65.40;33.47;;;;;;;4.27;61.09;102135.97;4955796;28;20069;-80
2024/01/11 08:26:13;;;;;;;58.97;32.88;;;;;;;4.58;60.82;102200.53;4946200;28;20082;-81
2024/01/11 08:28:42;;;;;;;61.85;31.15;;;;;;;4.40;60.14;102172.31;4944057;28;20047;-80
2024/01/11 08:31:12;;;;;;;66.07;32.80;;;;;;;4.58;59.88;102183.88;4929608;28;20054;-80
2024/01/11 08:33:39;;;;;;;58.65;30.55;;;;;;;4.76;59.82;102222.66;4942841;28;20107;-80
2024/01/11 08:36:11;;;;;;;60.25;31.95;;;;;;;4.66;59.65;102197.59;4957483;28;20047;-81
2024/01/11 08:38:43;;;;;;;56.27;32.33;;;;;;;4.55;59.53;102205.06;4960773;28;20124;-81
2024/01/11 08:41:11;;;;;;;60.38;31.92;;;;;;;4.58;59.94;102213.66;4950041;28;20498;-80
2024/01/11 08:43:39;;;;;;;59.08;30.75;;;;;;;4.56;59.92;102217.28;4934967;28;20129;-81
2024/01/11 08:46:06;;;;;;;57.60;32.13;;;;;;;4.45;59.94;102201.91;4952679;28;20498;-81
2024/01/11 08:48:33;;;;;;;57.25;30.77;;;;;;;4.54;60.13;102224.38;4929694;28;20068;-81
2024/01/11 08:51:00;;;;;;;58.28;31.98;;;;;;;4.55;59.58;102226.09;4937215;28;20086;-81
2024/01/11 08:53:27;;;;;;;57.15;30.70;;;;;;;4.55;60.44;102218.22;4936333;28;20467;-80
2024/01/11 08:55:54;;;;;;;60.58;32.30;;;;;;;4.57;60.15;102221.66;4926314;28;20133;-79
2024/01/11 08:58:21;;;;;;;54.45;30.65;;;;;;;4.56;60.28;102206.75;4930157;28;20070;-79
2024/01/11 09:00:48;;;;;;;71.38;33.47;;;;;;;4.40;60.07;102190.72;4944640;28;20486;-81
2024/01/11 09:03:17;;;;;;;57.95;30.20;;;;;;;4.56;60.35;102212.88;4923609;28;20571;-79
2024/01/11 09:05:47;;;;;;;57.33;29.90;;;;;;;4.54;59.57;102208.59;4932729;28;20155;-80
2024/01/11 09:08:22;;;;;;;60.05;31.60;;;;;;;4.73;58.85;102225.38;4929721;28;20078;-82
2024/01/11 09:10:49;;;;;;;61.47;31.92;;;;;;;4.76;58.94;102222.66;4925672;28;20040;-82
2024/01/11 09:13:18;;;;;;;55.35;31.08;;;;;;;4.70;59.20;102212.34;4925279;28;20198;-83
2024/01/11 09:15:45;;;;;;;57.28;31.27;;;;;;;4.98;58.89;102232.34;4889509;28;20395;-81
2024/01/11 09:18:12;;;;;;;57.17;29.80;;;;;;;4.09;58.66;102085.88;4890853;28;20511;-81
2024/01/11 09:20:48;;;;;;;56.67;31.30;;;;;;;4.85;57.82;102198.59;4914249;28;20098;-81
2024/01/11 09:23:22;;;;;;;52.88;27.92;;;;;;;5.01;57.01;102213.78;4899234;28;20136;-83
2024/01/11 09:25:54;;;;;;;60.50;30.63;;;;;;;5.12;56.73;102220.34;4893841;28;20183;-81
2024/01/11 09:28:24;;;;;;;55.90;30.13;;;;;;;4.98;57.13;102198.13;4891649;28;20357;-80
2024/01/11 09:30:51;;;;;;;56.70;29.50;;;;;;;4.79;57.50;102183.06;4915632;28;20047;-81
2024/01/11 09:33:20;;;;;;;61.85;29.25;;;;;;;4.89;57.46;102199.34;4921814;28;20053;-81
2024/01/11 09:35:47;;;;;;;58.50;30.55;;;;;;;4.66;57.49;102150.25;4923719;28;20051;-81
2024/01/11 09:38:17;;;;;;;56.03;29.63;;;;;;;5.16;57.40;102207.91;4896127;28;20141;-81
2024/01/11 09:40:44;;;;;;;54.00;29.35;;;;;;;5.19;57.03;102206.91;4906732;28;20553;-81
2024/01/11 09:43:15;;;;;;;56.30;27.60;;;;;;;5.31;56.94;102219.56;4900557;28;20106;-80
2024/01/11 09:45:55;;;;;;;49.65;26.83;;;;;;;5.25;55.61;102196.16;4896850;28;20554;-83
2024/01/11 09:48:24;;;;;;;51.75;26.58;;;;;;;5.38;55.56;102217.56;4886515;28;20078;-80
2024/01/11 09:50:59;;;;;;;56.00;27.40;;;;;;;5.46;54.87;102212.81;4891785;28;20126;-82
2024/01/11 09:53:36;;;;;;;50.50;27.60;;;;;;;5.13;55.02;102144.84;4910391;28;20296;-82
2024/01/11 09:56:10;;;;;;;49.80;28.75;;;;;;;5.50;54.78;102196.81;4882404;28;20671;-80
2024/01/11 09:58:45;;;;;;;49.15;26.45;;;;;;;5.52;54.95;102194.13;4915409;28;20581;-80
2024/01/11 10:01:13;;;;;;;52.28;25.92;;;;;;;5.38;54.39;102171.00;4906294;28;20051;-77
2024/01/11 10:03:43;;;;;;;46.55;26.73;;;;;;;4.96;54.29;102094.69;4929717;28;20407;-79
2024/01/11 10:06:10;;;;;;;45.45;25.98;;;;;;;5.51;54.54;102193.28;4932029;28;20245;-80
2024/01/11 10:08:37;;;;;;;50.40;27.27;;;;;;;5.48;54.92;102188.13;4919802;28;20517;-80
2024/01/11 10:11:04;;;;;;;52.20;27.70;;;;;;;5.52;54.58;102175.69;4928287;28;20051;-80
2024/01/11 10:13:35;;;;;;;51.30;26.40;;;;;;;5.46;54.38;102157.50;4920844;28;20839;-81
2024/01/11 10:16:06;;;;;;;51.08;26.13;;;;;;;5.63;54.25;102176.09;4911164;28;20134;-80
2024/01/11 10:18:33;;;;;;;51.28;28.60;;;;;;;5.01;54.42;102066.41;4915264;28;20359;-79
2024/01/11 10:21:01;;;;;;;58.90;29.30;;;;;;;5.35;54.75;102114.06;4930725;28;20608;-81
2024/01/11 10:23:31;;;;;;;55.35;28.33;;;;;;;5.54;55.78;102160.69;4938773;28;20054;-79
2024/01/11 10:26:07;;;;;;;50.60;26.80;;;;;;;5.50;55.55;102141.50;4910704;28;20050;-81
2024/01/11 10:28:38;;;;;;;44.00;26.20;;;;;;;5.55;55.75;102138.69;4912805;28;20113;-80
2024/01/11 10:31:07;;;;;;;48.95;26.08;;;;;;;5.67;54.87;102140.78;4913640;28;20534;-80
2024/01/11 10:33:38;;;;;;;47.35;24.42;;;;;;;5.47;54.34;102085.47;4911743;29;20360;-80
2024/01/11 10:36:07;;;;;;;47.97;25.60;;;;;;;5.06;54.97;102028.41;4917415;28;20307;-80
2024/01/11 10:38:48;;;;;;;47.42;25.67;;;;;;;5.66;54.14;102118.00;4928808;28;20046;-80
2024/01/11 10:41:20;;;;;;;42.00;23.35;;;;;;;5.78;53.60;102117.44;4912662;29;20047;-81
2024/01/11 10:43:48;;;;;;;43.45;25.27;;;;;;;5.28;53.81;102028.34;4919222;28;20631;-80
2024/01/11 10:46:16;;;;;;;45.33;24.45;;;;;;;5.59;53.58;102084.94;4909816;29;20745;-82
2024/01/11 10:48:49;;;;;;;41.30;23.27;;;;;;;5.76;53.53;102119.28;4904495;29;20138;-82
2024/01/11 10:51:19;;;;;;;48.08;24.05;;;;;;;5.72;54.29;102091.34;4899512;29;20280;-81
2024/01/11 10:53:47;;;;;;;44.63;22.48;;;;;;;5.41;53.28;102017.25;4898266;28;20343;-81
2024/01/11 10:56:18;;;;;;;42.55;22.95;;;;;;;5.95;53.24;102098.28;4891366;29;20657;-82
2024/01/11 10:58:47;;;;;;;38.00;20.90;;;;;;;6.14;51.89;102111.47;4894251;29;20272;-80
2024/01/11 11:01:14;;;;;;;35.40;19.65;;;;;;;6.03;51.60;102097.06;4917801;28;20070;-81
2024/01/11 11:03:49;;;;;;;51.85;20.83;;;;;;;6.07;51.07;102093.34;4901025;29;20059;-81
2024/01/11 11:06:18;;;;;;;36.97;20.75;;;;;;;5.77;52.15;102063.00;4918475;28;20043;-80
2024/01/11 11:08:49;;;;;;;42.15;21.83;;;;;;;5.62;52.09;102026.84;4916509;28;20055;-79
2024/01/11 11:11:18;;;;;;;48.38;22.23;;;;;;;5.85;52.90;102075.00;4918167;28;20439;-81
2024/01/11 11:13:48;;;;;;;39.67;22.00;;;;;;;6.02;52.53;102098.84;4928726;28;20101;-80
2024/01/11 11:16:16;;;;;;;47.75;21.77;;;;;;;5.82;52.64;102054.06;4873761;28;20459;-82
2024/01/11 11:18:44;;;;;;;44.72;21.98;;;;;;;5.76;52.91;102050.78;4917719;28;20208;-81
2024/01/11 11:21:11;;;;;;;40.55;21.05;;;;;;;5.98;52.72;102077.03;4920843;28;20138;-80
2024/01/11 11:23:38;;;;;;;39.55;22.02;;;;;;;5.99;53.21;102077.88;4912161;28;20487;-83
2024/01/11 11:26:10;;;;;;;39.63;21.00;;;;;;;6.08;53.46;102072.19;4915952;28;20059;-81